Choconut Center, New York
Current Conditions -  °F | °C
As of 7:53 AM on Saturday 01 Nov 2014 (Local Time) from KBGM Reporting Station
Overcast Overcast  
Wind Chill: 31°   Ceiling: 2000
Heat Index: 38°   Visibility: 10mi
Dew Point: 33°   Wind: 9mph
Humidity: 83%   Direction: 30°NNE
Pressure: 29.92"   Gusts: NA
Location:  42.1759°N, 75.9402°W
Report Text: KBGM 011153Z 03008KT 10SM BKN020 OVC040 03/01 A2992 RMK AO2 SLP141 T00330006 10050 20033 53014
Loading
Personal Weather Stations






























Interactive Weather Map
Tropical Storm Tracking
New forecast layout! Learn more

10-Day Weather Forecast

Advertisements
Track Severe Weather on mobile